Time;durP1;ratioP1;P1;durP2;ratioP2;P2;SDS_P1;SDS_P2;PMS_P1;PMS_P2;Temp;Humidity;BMP_temperature;BMP_pressure;BME280_temperature;BME280_humidity;BME280_pressure;Samples;Min_cycle;Max_cycle;Signal;HPM_P1;HPM_P2
2022/05/05 00:00:25;;;;;;;3.23;1.00;;;22.20;99.90;;;;;;5094572;28;20650;-70
2022/05/05 00:02:53;;;;;;;3.17;1.07;;;22.00;99.90;;;;;;5094442;28;20199;-69
2022/05/05 00:05:20;;;;;;;2.20;1.00;;;22.40;99.90;;;;;;5094284;28;20187;-67
2022/05/05 00:07:48;;;;;;;2.93;0.90;;;22.80;99.90;;;;;;5093686;28;20254;-68
2022/05/05 00:15:47;;;;;;;1.77;0.80;;;23.50;99.90;;;;;;5093946;28;20190;-68
2022/05/05 00:18:15;;;;;;;3.67;0.97;;;23.60;99.90;;;;;;5093969;28;20550;-68
2022/05/05 00:20:43;;;;;;;1.90;1.00;;;23.40;99.90;;;;;;5095641;28;20537;-68
2022/05/05 00:23:10;;;;;;;2.17;1.10;;;23.30;99.90;;;;;;5093875;28;20179;-68
2022/05/05 00:25:38;;;;;;;1.40;0.90;;;23.40;99.90;;;;;;5093518;28;20191;-69
2022/05/05 00:28:07;;;;;;;1.07;0.60;;;23.90;99.90;;;;;;5093763;28;20223;-69
2022/05/05 00:30:35;;;;;;;2.80;0.77;;;23.60;99.90;;;;;;5093492;28;20174;-69
2022/05/05 00:33:02;;;;;;;0.97;0.80;;;23.10;99.90;;;;;;5092250;28;20645;-68
2022/05/05 00:35:30;;;;;;;3.83;1.00;;;22.50;99.90;;;;;;5091273;28;20187;-70
2022/05/05 00:37:58;;;;;;;2.67;0.77;;;22.20;99.90;;;;;;5093574;28;20176;-70
2022/05/05 00:40:25;;;;;;;3.83;0.90;;;22.00;99.90;;;;;;5092975;28;20550;-67
2022/05/05 00:42:53;;;;;;;2.60;0.90;;;21.90;99.90;;;;;;5092871;28;20232;-68
2022/05/05 00:45:21;;;;;;;0.77;0.70;;;21.70;99.90;;;;;;5093138;28;20186;-68
2022/05/05 00:47:49;;;;;;;1.37;0.87;;;22.00;99.90;;;;;;5093474;28;20252;-68
2022/05/05 00:50:20;;;;;;;2.60;1.00;;;21.90;99.90;;;;;;5093519;28;20213;-68
2022/05/05 00:52:48;;;;;;;0.90;0.80;;;21.90;99.90;;;;;;5093510;28;20915;-68
2022/05/05 00:55:15;;;;;;;1.80;1.03;;;21.80;99.90;;;;;;5093140;28;20249;-68
2022/05/05 00:57:43;;;;;;;4.73;1.10;;;22.00;99.90;;;;;;5093472;28;20170;-68
2022/05/05 01:00:11;;;;;;;2.07;0.80;;;22.00;99.90;;;;;;5093346;28;20174;-68
2022/05/05 01:02:39;;;;;;;2.40;0.87;;;22.00;99.90;;;;;;5093269;28;20176;-68
2022/05/05 01:05:07;;;;;;;3.60;0.90;;;22.40;99.90;;;;;;5093194;28;20174;-67
2022/05/05 01:07:36;;;;;;;2.63;0.87;;;22.60;99.90;;;;;;5091914;28;20223;-69
2022/05/05 01:10:04;;;;;;;2.03;0.90;;;22.80;99.90;;;;;;5093070;28;20184;-68
2022/05/05 01:12:33;;;;;;;3.93;1.20;;;23.30;99.90;;;;;;5093337;28;20182;-68
2022/05/05 01:15:01;;;;;;;2.10;0.50;;;22.90;99.90;;;;;;5093127;28;20257;-68
2022/05/05 01:17:29;;;;;;;0.87;0.80;;;23.80;99.90;;;;;;5093142;28;20183;-68
2022/05/05 01:19:57;;;;;;;3.37;0.80;;;23.70;99.90;;;;;;5092886;28;20211;-68
2022/05/05 01:22:26;;;;;;;2.83;0.87;;;23.40;99.90;;;;;;5092938;28;20189;-68
2022/05/05 01:30:25;;;;;;;2.73;0.70;;;22.80;99.90;;;;;;5092711;28;20225;-68
2022/05/05 01:32:52;;;;;;;1.27;0.70;;;22.30;99.90;;;;;;5092518;28;20336;-68
2022/05/05 01:35:20;;;;;;;2.43;0.83;;;22.20;99.90;;;;;;5092320;28;20186;-68
2022/05/05 01:37:48;;;;;;;1.27;0.70;;;22.70;99.90;;;;;;5092522;28;20198;-69
2022/05/05 01:40:16;;;;;;;2.90;0.70;;;23.60;99.90;;;;;;5092302;28;20186;-70
2022/05/05 01:42:44;;;;;;;1.23;0.70;;;24.20;99.90;;;;;;5092334;28;20170;-68
2022/05/05 01:45:12;;;;;;;4.03;1.00;;;24.30;99.90;;;;;;5091988;28;20175;-68
2022/05/05 01:47:40;;;;;;;0.60;0.57;;;24.70;99.90;;;;;;5092399;28;20215;-70
2022/05/05 01:50:08;;;;;;;1.20;0.67;;;24.70;99.90;;;;;;5092600;28;20746;-69
2022/05/05 01:52:36;;;;;;;4.87;0.90;;;24.40;99.90;;;;;;5092474;28;20284;-69
2022/05/05 01:55:04;;;;;;;1.07;0.90;;;24.80;99.90;;;;;;5092174;28;20222;-67
2022/05/05 01:57:32;;;;;;;3.10;0.80;;;24.40;99.90;;;;;;5092395;28;20541;-67
2022/05/05 02:00:03;;;;;;;1.40;0.70;;;25.00;99.90;;;;;;5092260;28;20178;-68
2022/05/05 02:02:31;;;;;;;2.40;0.70;;;25.00;99.90;;;;;;5092167;28;20317;-68
2022/05/05 02:04:59;;;;;;;2.33;0.67;;;25.40;99.90;;;;;;5092084;28;20183;-68
2022/05/05 02:07:26;;;;;;;1.73;0.80;;;25.50;99.90;;;;;;5091741;28;20268;-68
2022/05/05 02:09:54;;;;;;;2.47;1.13;;;25.20;99.90;;;;;;5091598;28;20266;-68
2022/05/05 02:12:22;;;;;;;1.37;0.70;;;25.60;99.90;;;;;;5092020;28;20224;-67
2022/05/05 02:14:49;;;;;;;1.40;0.97;;;25.50;99.90;;;;;;5091696;28;20637;-68
2022/05/05 02:17:18;;;;;;;1.73;0.90;;;24.90;99.90;;;;;;5091526;28;20183;-67
2022/05/05 02:19:47;;;;;;;3.10;0.83;;;24.60;99.90;;;;;;5091923;28;20194;-68
2022/05/05 02:22:14;;;;;;;2.10;0.63;;;24.80;99.90;;;;;;5091462;28;20183;-68
2022/05/05 02:24:42;;;;;;;2.03;0.80;;;25.10;99.90;;;;;;5092117;28;20558;-68
2022/05/05 02:27:10;;;;;;;1.00;0.70;;;25.30;99.90;;;;;;5091735;28;20692;-68
2022/05/05 02:29:37;;;;;;;4.63;0.73;;;25.60;99.90;;;;;;5092099;28;20179;-67
2022/05/05 02:32:05;;;;;;;2.40;0.63;;;25.80;99.90;;;;;;5091869;28;20262;-68
2022/05/05 02:34:33;;;;;;;2.83;0.97;;;26.40;99.90;;;;;;5092039;28;20178;-67
2022/05/05 02:39:46;;;;;;;1.67;0.50;;;26.50;99.90;;;;;;5091774;28;20190;-68
2022/05/05 02:42:14;;;;;;;0.97;0.67;;;25.70;99.90;;;;;;5091770;28;20609;-67
2022/05/05 02:44:41;;;;;;;1.63;0.70;;;25.70;99.90;;;;;;5091967;28;20189;-67
2022/05/05 02:47:09;;;;;;;1.20;0.67;;;25.80;99.90;;;;;;5091668;28;20538;-68
2022/05/05 02:49:37;;;;;;;1.60;0.80;;;25.90;99.90;;;;;;5091875;28;20182;-68
2022/05/05 02:52:06;;;;;;;1.87;0.90;;;25.60;99.90;;;;;;5091512;28;20244;-67
2022/05/05 02:54:50;;;;;;;2.00;0.73;;;25.70;99.90;;;;;;5091290;28;20619;-67
2022/05/05 02:57:27;;;;;;;2.77;1.17;;;26.50;99.90;;;;;;5094877;28;20183;-68
2022/05/05 02:59:55;;;;;;;2.13;0.70;;;27.10;99.90;;;;;;5095578;28;20175;-67
2022/05/05 03:02:23;;;;;;;3.33;0.80;;;26.90;99.90;;;;;;5095341;28;20191;-68
2022/05/05 03:04:52;;;;;;;1.17;0.70;;;26.90;99.90;;;;;;5095176;28;20207;-69
2022/05/05 03:07:22;;;;;;;2.23;0.83;;;27.20;99.90;;;;;;5095602;28;20217;-69
2022/05/05 03:09:49;;;;;;;9.17;1.00;;;27.70;99.90;;;;;;5095395;28;20228;-67
2022/05/05 03:12:17;;;;;;;1.93;0.80;;;27.80;99.90;;;;;;5094854;28;20176;-69
2022/05/05 03:14:46;;;;;;;2.07;0.87;;;28.20;99.90;;;;;;5096095;28;20550;-68
2022/05/05 03:17:15;;;;;;;1.47;0.80;;;28.00;99.90;;;;;;5078131;28;20592;-70
2022/05/05 03:19:43;;;;;;;4.93;1.00;;;28.00;99.90;;;;;;5095164;28;20175;-72
2022/05/05 03:22:11;;;;;;;1.73;0.85;;;28.30;99.90;;;;;;5093476;28;20240;-72
2022/05/05 03:24:38;;;;;;;2.87;0.90;;;28.30;99.90;;;;;;5094811;28;20176;-72
2022/05/05 03:27:06;;;;;;;2.83;0.70;;;28.00;99.90;;;;;;5096324;28;20302;-74
2022/05/05 03:29:34;;;;;;;0.90;0.60;;;28.10;99.90;;;;;;5096323;28;20167;-73
2022/05/05 03:32:01;;;;;;;1.63;0.90;;;28.20;99.90;;;;;;5096290;28;20183;-73
2022/05/05 03:34:29;;;;;;;2.07;0.90;;;27.50;99.90;;;;;;5096485;28;20542;-74
2022/05/05 03:36:57;;;;;;;1.97;0.87;;;27.30;99.90;;;;;;5096443;28;20183;-73
2022/05/05 03:39:25;;;;;;;2.93;0.90;;;27.30;99.90;;;;;;5096421;28;20168;-73
2022/05/05 03:41:53;;;;;;;1.30;0.60;;;27.30;99.90;;;;;;5096116;28;20625;-74
2022/05/05 03:44:22;;;;;;;1.80;0.70;;;27.30;99.90;;;;;;5095985;28;20663;-73
2022/05/05 03:46:50;;;;;;;2.10;0.80;;;28.00;99.90;;;;;;5096011;28;20293;-72
2022/05/05 03:49:17;;;;;;;1.20;0.80;;;27.60;99.90;;;;;;5095990;28;20182;-73
2022/05/05 03:51:45;;;;;;;3.20;1.10;;;27.30;99.90;;;;;;5096331;28;20163;-72
2022/05/05 03:54:13;;;;;;;2.10;1.00;;;27.30;99.90;;;;;;5095795;28;20185;-73
2022/05/05 03:56:41;;;;;;;1.97;0.80;;;27.60;99.90;;;;;;5095933;28;20645;-73
2022/05/05 03:59:08;;;;;;;3.37;0.70;;;27.30;99.90;;;;;;5095704;28;20621;-72
2022/05/05 04:01:36;;;;;;;1.73;0.87;;;26.40;99.90;;;;;;5095630;28;20232;-74
2022/05/05 04:04:04;;;;;;;1.37;0.70;;;25.40;99.90;;;;;;5095605;28;20269;-73
2022/05/05 04:06:32;;;;;;;1.93;1.20;;;25.20;99.90;;;;;;5095749;28;20644;-74
2022/05/05 04:09:03;;;;;;;2.37;0.80;;;25.10;99.90;;;;;;5093718;28;20270;-73
2022/05/05 04:11:30;;;;;;;3.10;1.10;;;24.80;99.90;;;;;;5095583;28;20723;-73
2022/05/05 04:13:58;;;;;;;2.87;0.70;;;24.60;99.90;;;;;;5095520;28;20178;-72
2022/05/05 04:16:26;;;;;;;1.30;1.07;;;24.50;99.90;;;;;;5095480;28;20254;-73
2022/05/05 04:18:54;;;;;;;1.73;1.00;;;24.10;99.90;;;;;;5095358;28;20182;-73
2022/05/05 04:21:21;;;;;;;2.10;1.10;;;24.00;99.90;;;;;;5095324;28;20171;-73
2022/05/05 04:23:49;;;;;;;3.57;0.90;;;23.90;99.90;;;;;;5095181;28;20235;-72
2022/05/05 04:26:17;;;;;;;3.17;1.00;;;23.90;99.90;;;;;;5095192;28;20206;-73
2022/05/05 04:28:47;;;;;;;2.67;1.20;;;23.70;99.90;;;;;;5095240;28;20182;-71
2022/05/05 04:31:17;;;;;;;1.97;0.87;;;23.40;99.90;;;;;;5095282;28;20178;-71
2022/05/05 04:33:45;;;;;;;2.17;0.90;;;23.20;99.90;;;;;;5095297;28;20171;-71
2022/05/05 04:36:14;;;;;;;1.63;1.00;;;23.00;99.90;;;;;;5095047;28;20178;-70
2022/05/05 04:38:42;;;;;;;1.47;0.93;;;23.10;99.90;;;;;;5094984;28;20178;-72
2022/05/05 04:41:10;;;;;;;1.57;0.90;;;23.10;99.90;;;;;;5093755;28;20239;-69
2022/05/05 04:43:38;;;;;;;6.37;1.30;;;23.10;99.90;;;;;;5094924;28;20182;-72
2022/05/05 04:46:06;;;;;;;2.40;0.70;;;23.90;99.90;;;;;;5094676;28;20178;-72
2022/05/05 04:48:34;;;;;;;2.93;0.80;;;24.60;99.90;;;;;;5094891;28;20209;-73
2022/05/05 04:51:02;;;;;;;1.97;1.03;;;24.70;99.90;;;;;;5093779;28;20647;-71
2022/05/05 04:53:30;;;;;;;2.50;1.00;;;24.20;99.90;;;;;;5094774;28;20172;-70
2022/05/05 04:55:57;;;;;;;3.67;1.20;;;23.90;99.90;;;;;;5094337;28;20287;-71
2022/05/05 04:58:25;;;;;;;1.90;1.00;;;23.70;99.90;;;;;;5094706;28;20225;-70
2022/05/05 05:00:53;;;;;;;3.97;1.10;;;23.60;99.90;;;;;;5094509;28;20181;-70
2022/05/05 05:03:35;;;;;;;3.27;1.03;;;23.30;99.90;;;;;;5094425;28;20207;-72
2022/05/05 05:06:08;;;;;;;1.93;1.03;;;23.00;99.90;;;;;;5094671;28;20166;-70
2022/05/05 05:08:37;;;;;;;1.43;0.97;;;22.90;99.90;;;;;;5094729;28;20183;-72
2022/05/05 05:11:05;;;;;;;1.97;1.00;;;22.80;99.90;;;;;;5094371;28;20200;-72
2022/05/05 05:13:32;;;;;;;1.30;1.00;;;22.70;99.90;;;;;;5094290;28;20616;-72
2022/05/05 05:16:00;;;;;;;2.03;1.03;;;22.80;99.90;;;;;;5094205;28;20209;-71
2022/05/05 05:18:28;;;;;;;0.87;0.80;;;23.10;99.90;;;;;;5094048;28;20649;-69
2022/05/05 05:20:56;;;;;;;1.37;0.90;;;24.00;99.90;;;;;;5093435;28;20180;-72
2022/05/05 05:23:23;;;;;;;2.53;1.00;;;24.90;99.90;;;;;;5093857;28;20179;-72
2022/05/05 05:25:51;;;;;;;2.27;1.27;;;25.20;99.90;;;;;;5094056;28;20176;-69
2022/05/05 05:28:19;;;;;;;5.30;1.33;;;24.90;99.90;;;;;;5093968;28;20214;-69
2022/05/05 05:30:46;;;;;;;4.77;1.20;;;24.20;99.90;;;;;;5094416;28;20233;-71
2022/05/05 05:33:14;;;;;;;5.70;1.30;;;23.90;99.90;;;;;;5093907;28;20235;-70
2022/05/05 05:35:42;;;;;;;4.63;1.20;;;23.90;99.90;;;;;;5094272;28;20171;-71
2022/05/05 05:38:12;;;;;;;7.13;1.83;;;23.60;99.90;;;;;;5094023;28;20190;-71
2022/05/05 05:40:40;;;;;;;4.07;1.37;;;23.60;99.90;;;;;;5092716;28;20225;-72
2022/05/05 05:43:08;;;;;;;6.20;1.40;;;23.80;99.90;;;;;;5093837;28;20171;-73
2022/05/05 05:45:36;;;;;;;3.30;1.50;;;23.90;99.90;;;;;;5093271;28;20171;-69
2022/05/05 05:48:05;;;;;;;7.97;1.83;;;23.70;99.90;;;;;;5092986;28;20687;-69
2022/05/05 05:50:33;;;;;;;6.17;1.33;;;23.70;99.90;;;;;;5092557;28;20181;-69
2022/05/05 05:53:01;;;;;;;4.63;1.77;;;23.60;99.90;;;;;;5090101;28;20190;-69
2022/05/05 05:55:28;;;;;;;4.33;1.40;;;23.40;99.90;;;;;;5091801;28;20253;-68
2022/05/05 05:57:56;;;;;;;7.73;2.30;;;23.50;99.90;;;;;;5092328;28;20175;-69
2022/05/05 06:00:24;;;;;;;2.63;1.43;;;23.60;99.90;;;;;;5091071;28;20195;-69
2022/05/05 06:05:38;;;;;;;5.77;1.60;;;22.60;99.90;;;;;;5091791;28;20233;-68
2022/05/05 06:08:06;;;;;;;2.77;1.30;;;22.10;99.90;;;;;;5089340;28;20214;-68
2022/05/05 06:10:33;;;;;;;6.13;1.80;;;21.90;99.90;;;;;;5091614;28;20179;-69
2022/05/05 06:13:01;;;;;;;8.23;1.70;;;21.70;99.90;;;;;;5091622;28;20182;-69
2022/05/05 06:15:29;;;;;;;4.53;1.60;;;21.60;99.90;;;;;;5090650;28;20179;-69
2022/05/05 06:17:56;;;;;;;4.03;1.43;;;21.50;99.90;;;;;;5092143;28;20549;-68
2022/05/05 06:20:24;;;;;;;6.60;1.23;;;21.40;99.90;;;;;;5091839;28;20238;-69
2022/05/05 06:22:52;;;;;;;2.47;1.37;;;21.40;99.90;;;;;;5091535;28;20223;-69
2022/05/05 06:25:23;;;;;;;4.70;1.57;;;21.20;99.90;;;;;;5092178;28;20183;-69
2022/05/05 06:27:51;;;;;;;3.73;1.50;;;21.30;99.90;;;;;;5089731;28;20221;-69
2022/05/05 06:30:19;;;;;;;5.20;1.60;;;21.40;99.90;;;;;;5092403;28;20238;-70
2022/05/05 06:32:47;;;;;;;3.30;1.40;;;21.40;99.90;;;;;;5098735;28;20192;-69
2022/05/05 06:35:15;;;;;;;3.67;1.47;;;21.20;99.90;;;;;;5099064;28;20174;-68
2022/05/05 06:37:42;;;;;;;2.70;1.37;;;21.10;99.90;;;;;;5098238;28;20178;-69
2022/05/05 06:40:10;;;;;;;3.53;1.37;;;21.00;99.90;;;;;;5098499;28;20171;-69
2022/05/05 06:42:38;;;;;;;4.93;1.43;;;20.90;99.90;;;;;;5092093;28;20278;-71
2022/05/05 06:45:06;;;;;;;3.13;1.30;;;20.80;99.90;;;;;;5095132;28;20252;-70
2022/05/05 06:47:34;;;;;;;3.33;1.63;;;20.70;99.90;;;;;;5098627;28;20206;-67
2022/05/05 06:50:02;;;;;;;6.47;1.60;;;20.60;99.90;;;;;;5098292;28;20237;-69
2022/05/05 06:52:30;;;;;;;6.87;1.70;;;20.50;99.90;;;;;;5098099;28;20175;-69
2022/05/05 06:54:57;;;;;;;4.27;1.67;;;20.40;99.90;;;;;;5098259;28;20641;-69
2022/05/05 06:57:26;;;;;;;5.90;1.57;;;20.40;99.90;;;;;;5098456;28;20225;-68
2022/05/05 06:59:54;;;;;;;2.67;1.23;;;20.20;99.90;;;;;;5097264;28;20270;-69
2022/05/05 07:02:22;;;;;;;4.83;1.40;;;20.10;99.90;;;;;;5098039;28;20183;-69
2022/05/05 07:07:35;;;;;;;7.50;1.60;;;20.00;99.90;;;;;;5098428;28;20239;-69
2022/05/05 07:12:49;;;;;;;6.90;1.73;;;19.90;99.90;;;;;;5098304;28;20206;-69
2022/05/05 07:15:16;;;;;;;6.60;1.60;;;19.90;99.90;;;;;;5097865;28;20181;-69
2022/05/05 07:17:44;;;;;;;5.47;1.90;;;19.70;99.90;;;;;;5098124;28;20595;-68
2022/05/05 07:20:12;;;;;;;7.27;1.90;;;19.70;99.90;;;;;;5098106;28;20286;-69
2022/05/05 07:22:40;;;;;;;6.50;1.73;;;19.70;99.90;;;;;;5097938;28;20187;-68
2022/05/05 07:25:09;;;;;;;2.83;1.83;;;19.60;99.90;;;;;;5096685;28;20188;-68
2022/05/05 07:27:38;;;;;;;6.73;1.93;;;19.60;99.90;;;;;;5096730;28;20592;-67
2022/05/05 07:30:07;;;;;;;4.10;1.97;;;19.50;99.90;;;;;;5098164;28;20236;-68
2022/05/05 07:32:35;;;;;;;8.67;1.33;;;19.40;99.90;;;;;;5096357;28;20183;-68
2022/05/05 07:35:02;;;;;;;4.47;1.67;;;19.40;99.90;;;;;;5097828;28;20177;-69
2022/05/05 07:37:32;;;;;;;5.90;2.43;;;19.30;99.90;;;;;;5097967;28;20240;-68
2022/05/05 07:39:59;;;;;;;8.03;1.70;;;19.10;99.90;;;;;;5097190;28;20186;-69
2022/05/05 07:42:27;;;;;;;5.07;1.97;;;19.00;99.90;;;;;;5095319;28;20197;-68
2022/05/05 07:44:55;;;;;;;5.33;1.73;;;19.00;99.90;;;;;;5094853;28;20291;-69
2022/05/05 07:47:22;;;;;;;8.23;1.77;;;18.80;99.90;;;;;;5094786;28;20255;-69
2022/05/05 07:49:50;;;;;;;4.60;1.77;;;18.80;99.90;;;;;;5094918;28;20201;-68
2022/05/05 07:52:18;;;;;;;5.33;1.87;;;18.70;99.90;;;;;;5094393;28;20220;-70
2022/05/05 07:54:46;;;;;;;7.53;2.40;;;18.60;99.90;;;;;;5094362;28;20211;-68
2022/05/05 07:57:17;;;;;;;6.80;2.23;;;18.60;99.90;;;;;;5094463;28;20260;-69
2022/05/05 07:59:45;;;;;;;5.43;2.00;;;18.50;99.90;;;;;;5094613;28;20186;-67
2022/05/05 08:02:14;;;;;;;6.07;2.23;;;18.40;99.90;;;;;;5094295;28;20175;-68
2022/05/05 08:04:42;;;;;;;8.23;2.20;;;18.30;99.90;;;;;;5094008;28;20194;-68
2022/05/05 08:07:11;;;;;;;2.87;1.60;;;18.20;99.90;;;;;;5094635;28;20353;-68
2022/05/05 08:09:40;;;;;;;5.63;2.00;;;18.10;99.90;;;;;;5093709;28;20204;-68
2022/05/05 08:12:08;;;;;;;7.33;2.00;;;18.10;99.90;;;;;;5093833;28;20183;-68
2022/05/05 08:14:37;;;;;;;7.20;2.30;;;18.00;99.90;;;;;;5094474;28;20182;-67
2022/05/05 08:17:05;;;;;;;7.93;2.40;;;17.90;99.90;;;;;;5094541;28;20236;-68
2022/05/05 08:19:33;;;;;;;5.10;2.07;;;17.90;99.90;;;;;;5093638;28;20274;-67
2022/05/05 08:22:00;;;;;;;9.20;2.83;;;17.80;99.90;;;;;;5093762;28;20187;-68
2022/05/05 08:30:04;;;;;;;9.70;2.30;;;17.70;99.90;;;;;;5094227;28;20200;-67
2022/05/05 08:32:32;;;;;;;4.33;1.97;;;17.60;99.90;;;;;;5094186;28;20182;-68
2022/05/05 08:35:00;;;;;;;6.40;2.43;;;17.50;99.90;;;;;;5093638;28;20608;-68
2022/05/05 08:37:27;;;;;;;7.80;2.23;;;17.50;99.90;;;;;;5093584;28;20676;-69
2022/05/05 08:39:56;;;;;;;5.27;2.37;;;17.50;99.90;;;;;;5090509;28;20175;-67
2022/05/05 08:42:24;;;;;;;6.53;2.17;;;17.50;99.90;;;;;;5093607;28;20175;-67
2022/05/05 08:44:53;;;;;;;11.00;2.53;;;17.40;99.90;;;;;;5093315;28;20640;-67
2022/05/05 08:47:24;;;;;;;6.17;2.63;;;17.40;99.90;;;;;;5093633;28;20704;-68
2022/05/05 08:49:58;;;;;;;7.30;2.57;;;17.30;99.90;;;;;;5093411;28;20190;-68
2022/05/05 08:52:28;;;;;;;8.63;2.70;;;17.30;99.90;;;;;;5093601;28;20649;-68
2022/05/05 08:54:56;;;;;;;4.60;2.23;;;17.30;99.90;;;;;;5092952;28;20620;-68
2022/05/05 08:57:24;;;;;;;6.27;2.60;;;17.10;99.90;;;;;;5093428;28;20180;-68
2022/05/05 08:59:54;;;;;;;4.40;2.27;;;17.10;99.90;;;;;;5092937;28;20313;-68
2022/05/05 09:02:22;;;;;;;8.47;2.17;;;17.00;99.90;;;;;;5092676;28;20192;-68
2022/05/05 09:04:50;;;;;;;5.53;2.33;;;17.00;99.90;;;;;;5092890;28;20262;-67
2022/05/05 09:07:18;;;;;;;6.50;2.60;;;17.00;99.90;;;;;;5093324;28;20668;-68
2022/05/05 09:09:50;;;;;;;8.63;2.50;;;16.90;99.90;;;;;;5093278;28;20175;-68
2022/05/05 09:12:23;;;;;;;7.10;3.73;;;16.80;99.90;;;;;;5093239;28;20168;-67
2022/05/05 09:14:53;;;;;;;8.43;3.10;;;16.80;99.90;;;;;;5092859;28;20172;-68
2022/05/05 09:17:30;;;;;;;8.10;3.07;;;16.70;99.90;;;;;;5093347;28;20179;-69
2022/05/05 09:19:59;;;;;;;7.03;2.90;;;16.80;99.90;;;;;;5093052;28;20170;-68
2022/05/05 09:22:28;;;;;;;9.43;3.53;;;16.70;99.90;;;;;;5093151;28;20528;-67
2022/05/05 09:24:57;;;;;;;7.33;3.27;;;16.70;99.90;;;;;;5093006;28;20572;-69
2022/05/05 09:27:29;;;;;;;9.23;3.70;;;16.60;99.90;;;;;;5093164;28;20210;-69
2022/05/05 09:30:08;;;;;;;12.87;3.97;;;16.70;99.90;;;;;;5092739;28;20598;-68
2022/05/05 09:32:37;;;;;;;10.23;4.33;;;16.60;99.90;;;;;;5092513;28;20187;-69
2022/05/05 09:35:11;;;;;;;8.37;3.37;;;16.80;99.90;;;;;;5092766;28;20175;-69
2022/05/05 09:37:48;;;;;;;6.90;3.17;;;16.90;99.90;;;;;;5092115;28;20195;-69
2022/05/05 09:40:20;;;;;;;9.53;3.00;;;17.00;99.90;;;;;;5092884;28;20217;-70
2022/05/05 09:42:50;;;;;;;8.27;3.60;;;17.10;99.90;;;;;;5092347;28;20274;-69
2022/05/05 09:45:19;;;;;;;7.57;3.57;;;17.10;99.90;;;;;;5073748;28;20184;-69
2022/05/05 09:47:58;;;;;;;7.53;3.03;;;17.10;99.90;;;;;;5092636;28;20218;-68
2022/05/05 09:50:27;;;;;;;12.27;3.67;;;17.10;99.90;;;;;;5092169;28;20542;-69
2022/05/05 09:58:48;;;;;;;7.47;3.60;;;17.00;99.90;;;;;;5091649;28;20190;-68
2022/05/05 10:01:24;;;;;;;13.10;4.57;;;17.00;99.90;;;;;;5092544;28;20179;-69
2022/05/05 10:04:05;;;;;;;9.20;3.43;;;17.10;99.90;;;;;;5091955;28;20198;-69
2022/05/05 10:06:41;;;;;;;10.63;3.37;;;17.20;99.90;;;;;;5091818;28;20300;-68
2022/05/05 10:09:14;;;;;;;9.80;3.20;;;17.30;99.90;;;;;;5091174;28;20175;-69
2022/05/05 10:11:42;;;;;;;12.03;3.43;;;17.30;99.90;;;;;;5091366;28;20187;-68
2022/05/05 10:14:12;;;;;;;7.30;3.27;;;17.40;99.90;;;;;;5092317;28;20312;-68
2022/05/05 10:16:42;;;;;;;5.83;3.00;;;17.50;99.90;;;;;;5092026;28;20571;-68
2022/05/05 10:19:11;;;;;;;6.90;2.87;;;17.50;99.90;;;;;;5092206;28;20644;-70
2022/05/05 10:22:09;;;;;;;8.37;2.90;;;17.50;99.90;;;;;;5091825;28;20182;-68
2022/05/05 10:25:16;;;;;;;8.10;3.47;;;17.60;99.90;;;;;;5091726;28;20186;-67
2022/05/05 10:27:48;;;;;;;8.07;3.07;;;17.70;99.90;;;;;;5088646;28;20222;-68
2022/05/05 10:30:34;;;;;;;6.40;3.53;;;17.80;99.90;;;;;;5091762;28;20178;-69
2022/05/05 10:33:06;;;;;;;9.17;3.17;;;17.70;99.90;;;;;;5092138;28;20214;-68
2022/05/05 10:35:49;;;;;;;5.93;3.10;;;17.60;99.90;;;;;;5092185;28;20209;-68
2022/05/05 10:38:40;;;;;;;11.67;3.10;;;17.60;99.90;;;;;;5092378;28;20169;-68
2022/05/05 10:41:40;;;;;;;7.40;2.90;;;17.50;99.90;;;;;;5092968;28;20186;-69
2022/05/05 10:44:22;;;;;;;8.33;3.77;;;17.50;99.90;;;;;;5089630;28;20590;-69
2022/05/05 10:47:06;;;;;;;5.90;2.70;;;17.50;99.90;;;;;;5093070;28;20214;-68
2022/05/05 10:49:34;;;;;;;12.27;3.67;;;17.40;99.90;;;;;;5092953;28;20171;-68
2022/05/05 10:52:17;;;;;;;7.30;3.07;;;17.50;99.90;;;;;;5093151;28;20265;-67
2022/05/05 10:54:47;;;;;;;7.00;3.00;;;17.40;99.90;;;;;;5092807;28;20257;-69
2022/05/05 10:57:27;;;;;;;4.70;2.37;;;17.40;99.90;;;;;;5093179;28;20183;-70
2022/05/05 11:00:13;;;;;;;10.63;2.90;;;17.30;99.90;;;;;;5093057;28;20186;-70
2022/05/05 11:03:02;;;;;;;6.90;2.80;;;17.30;99.90;;;;;;5091515;28;20530;-68
2022/05/05 11:05:33;;;;;;;6.30;3.30;;;17.20;99.90;;;;;;5092960;28;20531;-69
2022/05/05 11:08:07;;;;;;;9.13;2.97;;;17.20;99.90;;;;;;5092776;28;20764;-69
2022/05/05 11:10:46;;;;;;;7.57;2.67;;;17.20;99.90;;;;;;5091659;28;20179;-70
2022/05/05 11:13:35;;;;;;;4.13;2.20;;;17.20;99.90;;;;;;5093008;28;20179;-69
2022/05/05 11:22:26;;;;;;;5.67;2.53;;;17.20;99.90;;;;;;5096846;28;20185;-69
2022/05/05 11:24:54;;;;;;;6.60;2.60;;;17.10;99.90;;;;;;5096334;28;20175;-69
2022/05/05 11:27:24;;;;;;;10.07;2.67;;;17.10;99.90;;;;;;5096501;28;20301;-71
2022/05/05 11:29:54;;;;;;;6.67;2.30;;;16.90;99.90;;;;;;5096612;28;20202;-69
2022/05/05 11:32:32;;;;;;;5.50;2.70;;;16.80;99.90;;;;;;5096256;28;20225;-69
2022/05/05 11:35:01;;;;;;;5.17;2.60;;;16.60;99.90;;;;;;5095219;28;20284;-69
2022/05/05 11:37:30;;;;;;;6.03;2.40;;;16.60;99.90;;;;;;5096487;28;20183;-67
2022/05/05 11:40:02;;;;;;;8.40;2.63;;;16.50;99.90;;;;;;5096489;28;20203;-70
2022/05/05 11:42:29;;;;;;;10.57;2.93;;;16.50;99.90;;;;;;5096381;28;20175;-69
2022/05/05 11:44:58;;;;;;;6.40;2.70;;;16.50;99.90;;;;;;5096285;28;20228;-69
2022/05/05 11:47:26;;;;;;;5.77;2.17;;;16.50;99.90;;;;;;5096096;28;20214;-69
2022/05/05 11:49:56;;;;;;;6.93;2.50;;;16.40;99.90;;;;;;5096266;28;20183;-68
2022/05/05 11:52:26;;;;;;;10.37;3.07;;;16.40;99.90;;;;;;5094958;28;20546;-69
2022/05/05 11:54:57;;;;;;;8.33;2.73;;;16.40;99.90;;;;;;5095927;28;20221;-67
2022/05/05 11:57:41;;;;;;;9.13;2.87;;;16.40;99.90;;;;;;5096297;28;20257;-68
2022/05/05 12:02:58;;;;;;;6.97;3.30;;;16.40;99.90;;;;;;5095880;28;20224;-69
2022/05/05 12:05:26;;;;;;;4.00;2.37;;;16.40;99.90;;;;;;5095418;28;20190;-67
2022/05/05 12:07:56;;;;;;;10.50;2.50;;;16.40;99.90;;;;;;5095419;28;20215;-68
2022/05/05 12:10:36;;;;;;;9.43;2.70;;;16.40;99.90;;;;;;5075582;28;20237;-69
2022/05/05 12:13:06;;;;;;;8.43;2.70;;;16.40;99.90;;;;;;5075486;28;20175;-69
2022/05/05 12:15:33;;;;;;;8.20;2.83;;;16.50;99.90;;;;;;5093208;28;20260;-68
2022/05/05 12:18:01;;;;;;;9.40;2.60;;;16.50;99.90;;;;;;5095759;28;20168;-68
2022/05/05 12:20:30;;;;;;;7.23;2.70;;;16.50;99.90;;;;;;5095780;28;20187;-69
2022/05/05 12:23:04;;;;;;;7.73;2.20;;;16.40;99.90;;;;;;5095227;28;20239;-69
2022/05/05 12:25:33;;;;;;;11.07;2.50;;;16.40;99.90;;;;;;5094589;28;20179;-69
2022/05/05 12:28:03;;;;;;;4.20;2.20;;;16.50;99.90;;;;;;5095184;28;20226;-69
2022/05/05 12:30:40;;;;;;;4.03;2.47;;;16.50;99.90;;;;;;5094034;28;20202;-68
2022/05/05 12:33:11;;;;;;;6.00;2.20;;;16.50;99.90;;;;;;5095292;28;20179;-69
2022/05/05 12:35:41;;;;;;;8.80;2.43;;;16.50;99.90;;;;;;5095345;28;20188;-70
2022/05/05 12:38:11;;;;;;;3.80;2.10;;;16.50;99.90;;;;;;5095352;28;20629;-69
2022/05/05 12:40:46;;;;;;;2.20;1.67;;;16.40;99.90;;;;;;5095202;28;20178;-68
2022/05/05 12:43:20;;;;;;;3.07;1.87;;;16.40;99.90;;;;;;5095042;28;20179;-69
2022/05/05 12:45:49;;;;;;;5.00;1.87;;;16.40;99.90;;;;;;5093905;28;20181;-68
2022/05/05 12:48:21;;;;;;;4.73;2.10;;;16.40;99.90;;;;;;5095035;28;20214;-68
2022/05/05 12:50:52;;;;;;;5.87;2.37;;;16.40;99.90;;;;;;5093920;28;20577;-69
2022/05/05 13:01:54;;;;;;;5.50;1.90;;;16.40;99.90;;;;;;5091896;28;20243;-67
2022/05/05 13:04:23;;;;;;;4.37;1.47;;;16.40;99.90;;;;;;5094105;28;20186;-68
2022/05/05 13:06:52;;;;;;;3.13;1.73;;;16.40;99.90;;;;;;5094503;28;20259;-68
2022/05/05 13:09:21;;;;;;;6.63;1.90;;;16.50;99.90;;;;;;5093985;28;20191;-67
2022/05/05 13:11:53;;;;;;;3.87;1.47;;;16.50;99.90;;;;;;5094733;28;20538;-69
2022/05/05 13:14:23;;;;;;;4.73;1.57;;;16.60;99.90;;;;;;5094354;28;20183;-68
2022/05/05 13:16:52;;;;;;;1.50;1.10;;;16.60;99.90;;;;;;5094369;28;20182;-68
2022/05/05 13:19:20;;;;;;;2.43;1.40;;;16.60;99.90;;;;;;5093125;28;20553;-68
2022/05/05 13:21:48;;;;;;;1.23;0.73;;;16.70;99.90;;;;;;5094243;28;20172;-69
2022/05/05 13:24:15;;;;;;;0.93;0.83;;;16.60;99.90;;;;;;5094091;28;20603;-68
2022/05/05 13:26:46;;;;;;;1.73;0.97;;;16.70;99.90;;;;;;5094365;28;20627;-68
2022/05/05 13:29:14;;;;;;;2.33;1.10;;;16.70;99.90;;;;;;5093852;28;20656;-69
2022/05/05 13:31:41;;;;;;;1.13;1.00;;;16.60;99.90;;;;;;5094154;28;20180;-69
2022/05/05 13:34:09;;;;;;;5.07;1.23;;;16.50;99.90;;;;;;5094153;28;20275;-69
2022/05/05 13:36:38;;;;;;;2.20;1.03;;;16.50;99.90;;;;;;5094283;28;20171;-69
2022/05/05 13:39:06;;;;;;;2.43;1.00;;;16.50;99.90;;;;;;5093635;28;20183;-69
2022/05/05 13:41:35;;;;;;;3.13;1.13;;;16.50;99.90;;;;;;5093046;28;20618;-68
2022/05/05 13:44:05;;;;;;;3.20;1.20;;;16.50;99.90;;;;;;5073721;28;20630;-69
2022/05/05 13:46:36;;;;;;;1.30;1.07;;;16.50;99.90;;;;;;5073677;28;20179;-69
2022/05/05 13:49:04;;;;;;;3.50;1.10;;;16.50;99.90;;;;;;5090179;28;20217;-68